Time;durP1;ratioP1;P1;durP2;ratioP2;P2;SDS_P1;SDS_P2;PMS_P1;PMS_P2;Temp;Humidity;BMP_temperature;BMP_pressure;BME280_temperature;BME280_humidity;BME280_pressure;Samples;Min_cycle;Max_cycle;Signal;HPM_P1;HPM_P2
2023/07/04 00:02:29;;;;;;;10.02;4.38;;;;;;;;;;6197799;28;20054;-82
2023/07/04 00:05:31;;;;;;;9.48;4.65;;;;;;;;;;6213815;28;20405;-81
2023/07/04 00:08:36;;;;;;;10.07;4.63;;;;;;;;;;6219058;28;20045;-82
2023/07/04 00:11:38;;;;;;;10.82;4.80;;;;;;;;;;6191450;28;20516;-81
2023/07/04 00:14:39;;;;;;;11.70;4.85;;;;;;;;;;6212290;28;20050;-82
2023/07/04 00:17:44;;;;;;;9.60;4.78;;;;;;;;;;6223674;28;20463;-81
2023/07/04 00:20:55;;;;;;;11.68;4.88;;;;;;;;;;6218150;28;20054;-81
2023/07/04 00:23:57;;;;;;;12.15;4.97;;;;;;;;;;6212517;28;20508;-81
2023/07/04 00:26:58;;;;;;;12.82;4.50;;;;;;;;;;6214851;28;20050;-81
2023/07/04 00:30:04;;;;;;;11.15;5.00;;;;;;;;;;6196206;28;20045;-81
2023/07/04 00:33:06;;;;;;;9.35;3.78;;;;;;;;;;6199064;28;20714;-80
2023/07/04 00:36:09;;;;;;;10.95;4.63;;;;;;;;;;6207603;28;20069;-81
2023/07/04 00:39:11;;;;;;;13.55;4.32;;;;;;;;;;6211191;28;20105;-81
2023/07/04 00:42:13;;;;;;;11.63;5.03;;;;;;;;;;6214140;28;20058;-81
2023/07/04 00:45:19;;;;;;;10.48;4.50;;;;;;;;;;6227939;28;20052;-81
2023/07/04 00:48:21;;;;;;;9.05;4.68;;;;;;;;;;6222653;28;20054;-81
2023/07/04 00:51:23;;;;;;;11.63;4.18;;;;;;;;;;6219448;28;20049;-81
2023/07/04 00:54:29;;;;;;;11.60;4.53;;;;;;;;;;6218645;28;20042;-81
2023/07/04 00:57:33;;;;;;;11.27;4.10;;;;;;;;;;6215059;28;20065;-82
2023/07/04 01:00:37;;;;;;;9.40;3.97;;;;;;;;;;6198349;28;20057;-81
2023/07/04 01:03:38;;;;;;;11.57;3.83;;;;;;;;;;6205240;28;20045;-81
2023/07/04 01:06:59;;;;;;;9.40;3.90;;;;;;;;;;6219395;28;20117;-82
2023/07/04 01:10:11;;;;;;;9.60;4.18;;;;;;;;;;6208160;28;20042;-82
2023/07/04 01:13:34;;;;;;;7.25;3.70;;;;;;;;;;6211191;28;20568;-82
2023/07/04 01:16:36;;;;;;;;;;;;;;;;;;6175218;28;20053;-81
2023/07/04 01:19:39;;;;;;;8.07;3.58;;;;;;;;;;6215814;28;19960;-80
2023/07/04 01:22:53;;;;;;;9.45;3.53;;;;;;;;;;6214983;28;20056;-82
2023/07/04 01:26:19;;;;;;;9.40;3.35;;;;;;;;;;6211529;28;20041;-82
2023/07/04 01:29:21;;;;;;;11.75;3.92;;;;;;;;;;6193390;28;20608;-82
2023/07/04 01:32:25;;;;;;;8.90;3.38;;;;;;;;;;6212473;28;20121;-82
2023/07/04 01:35:27;;;;;;;8.38;3.35;;;;;;;;;;6211090;28;20424;-81
2023/07/04 01:38:30;;;;;;;9.80;3.83;;;;;;;;;;6209646;28;20470;-81
2023/07/04 01:41:32;;;;;;;7.68;3.50;;;;;;;;;;6214341;28;20109;-81
2023/07/04 01:44:35;;;;;;;11.50;3.60;;;;;;;;;;6210865;28;20176;-82
2023/07/04 01:47:37;;;;;;;9.38;3.78;;;;;;;;;;6196219;28;20046;-81
2023/07/04 01:50:39;;;;;;;8.57;3.63;;;;;;;;;;6203535;28;20050;-81
2023/07/04 01:53:41;;;;;;;10.02;3.70;;;;;;;;;;6199416;28;20041;-81
2023/07/04 01:56:50;;;;;;;9.75;3.47;;;;;;;;;;6209890;28;20046;-82
2023/07/04 01:59:53;;;;;;;7.22;3.50;;;;;;;;;;6205836;28;20049;-81
2023/07/04 02:02:56;;;;;;;;;;;;;;;;;;6212842;28;20579;-82
2023/07/04 02:05:58;;;;;;;10.35;3.70;;;;;;;;;;6216185;28;20020;-81
2023/07/04 02:09:00;;;;;;;10.45;4.45;;;;;;;;;;6211133;28;20579;-81
2023/07/04 02:12:02;;;;;;;8.75;3.65;;;;;;;;;;6215634;28;20053;-81
2023/07/04 02:15:04;;;;;;;10.13;3.72;;;;;;;;;;6212127;28;20045;-81
2023/07/04 02:18:07;;;;;;;8.68;3.80;;;;;;;;;;6216179;28;20817;-81
2023/07/04 02:21:10;;;;;;;6.55;3.63;;;;;;;;;;6210440;28;20149;-82
2023/07/04 02:24:11;;;;;;;9.50;4.28;;;;;;;;;;6212313;28;20042;-81
2023/07/04 02:27:13;;;;;;;7.47;3.63;;;;;;;;;;6213310;28;20089;-81
2023/07/04 02:30:15;;;;;;;18.42;4.05;;;;;;;;;;6215485;28;20041;-81
2023/07/04 02:33:16;;;;;;;11.90;4.55;;;;;;;;;;6209475;28;20049;-81
2023/07/04 02:36:20;;;;;;;11.03;4.20;;;;;;;;;;6201470;28;20101;-81
2023/07/04 02:39:22;;;;;;;8.23;3.92;;;;;;;;;;6211947;28;20042;-82
2023/07/04 02:42:23;;;;;;;9.48;4.00;;;;;;;;;;6210213;28;20076;-81
2023/07/04 02:45:28;;;;;;;9.13;4.00;;;;;;;;;;6205435;28;20508;-81
2023/07/04 02:48:31;;;;;;;9.40;4.00;;;;;;;;;;6202083;28;20054;-81
2023/07/04 02:51:33;;;;;;;6.20;3.30;;;;;;;;;;6210584;28;20054;-81
2023/07/04 02:54:35;;;;;;;8.60;3.42;;;;;;;;;;6198207;28;20096;-81
2023/07/04 02:57:37;;;;;;;8.55;3.33;;;;;;;;;;6191807;28;20053;-81
2023/07/04 03:00:39;;;;;;;8.27;3.50;;;;;;;;;;6207264;28;20038;-82
2023/07/04 03:03:41;;;;;;;9.23;3.28;;;;;;;;;;6207245;28;20062;-80
2023/07/04 03:06:43;;;;;;;12.00;4.35;;;;;;;;;;6219104;28;20125;-80
2023/07/04 03:09:46;;;;;;;10.70;3.53;;;;;;;;;;6215842;28;20056;-81
2023/07/04 03:12:48;;;;;;;8.65;3.05;;;;;;;;;;6210497;28;20065;-79
2023/07/04 03:15:51;;;;;;;8.15;3.33;;;;;;;;;;6180461;28;20789;-81
2023/07/04 03:18:53;;;;;;;9.93;3.60;;;;;;;;;;6204705;28;20104;-81
2023/07/04 03:21:56;;;;;;;11.27;3.42;;;;;;;;;;6210862;28;20046;-79
2023/07/04 03:24:58;;;;;;;10.40;3.60;;;;;;;;;;6211223;28;20041;-78
2023/07/04 03:28:01;;;;;;;10.05;3.63;;;;;;;;;;6202099;28;20057;-80
2023/07/04 03:31:04;;;;;;;10.43;3.50;;;;;;;;;;6207729;28;20046;-79
2023/07/04 03:34:07;;;;;;;10.57;3.55;;;;;;;;;;6207530;28;20057;-79
2023/07/04 03:37:08;;;;;;;11.88;4.00;;;;;;;;;;6208691;28;20038;-80
2023/07/04 03:40:11;;;;;;;13.65;3.97;;;;;;;;;;6188768;28;20208;-80
2023/07/04 03:43:12;;;;;;;5.70;3.20;;;;;;;;;;6181011;28;20042;-80
2023/07/04 03:46:14;;;;;;;7.53;3.47;;;;;;;;;;6203604;28;20604;-81
2023/07/04 03:49:16;;;;;;;9.32;3.55;;;;;;;;;;6209794;28;20041;-80
2023/07/04 03:52:18;;;;;;;7.47;3.37;;;;;;;;;;6202942;28;20073;-79
2023/07/04 03:55:20;;;;;;;8.48;3.60;;;;;;;;;;6206345;28;20200;-80
2023/07/04 03:58:23;;;;;;;11.88;3.38;;;;;;;;;;6226979;28;20505;-80
2023/07/04 04:01:25;;;;;;;9.32;4.07;;;;;;;;;;6215853;28;20041;-79
2023/07/04 04:04:26;;;;;;;9.88;3.13;;;;;;;;;;6216799;28;20532;-80
2023/07/04 04:07:28;;;;;;;12.38;3.17;;;;;;;;;;6217634;28;20052;-80
2023/07/04 04:10:30;;;;;;;10.60;3.28;;;;;;;;;;6221671;28;20050;-81
2023/07/04 04:13:32;;;;;;;9.52;3.38;;;;;;;;;;6214583;28;20081;-80
2023/07/04 04:16:33;;;;;;;10.18;3.20;;;;;;;;;;6215106;28;20440;-80
2023/07/04 04:19:35;;;;;;;8.13;3.53;;;;;;;;;;6213034;28;20050;-80
2023/07/04 04:22:39;;;;;;;9.77;3.05;;;;;;;;;;6212665;28;20046;-81
2023/07/04 04:25:41;;;;;;;15.52;5.22;;;;;;;;;;6214973;28;20034;-80
2023/07/04 04:28:42;;;;;;;8.10;3.10;;;;;;;;;;6210377;28;20147;-81
2023/07/04 04:31:45;;;;;;;11.10;3.20;;;;;;;;;;6204548;28;20046;-80
2023/07/04 04:34:47;;;;;;;10.45;3.20;;;;;;;;;;6209957;28;20045;-79
2023/07/04 04:37:48;;;;;;;10.00;2.90;;;;;;;;;;6212133;28;20095;-80
2023/07/04 04:40:50;;;;;;;8.50;2.80;;;;;;;;;;6209744;28;20073;-81
2023/07/04 04:43:53;;;;;;;9.25;3.03;;;;;;;;;;6209796;28;20127;-80
2023/07/04 04:46:55;;;;;;;8.03;3.60;;;;;;;;;;6214080;28;20049;-81
2023/07/04 04:49:57;;;;;;;9.03;3.60;;;;;;;;;;6217462;28;20049;-80
2023/07/04 04:52:59;;;;;;;9.82;3.80;;;;;;;;;;6208700;28;20586;-80
2023/07/04 04:56:02;;;;;;;8.93;3.00;;;;;;;;;;6210867;28;20053;-81
2023/07/04 04:59:04;;;;;;;7.45;3.08;;;;;;;;;;6210440;28;20057;-79
2023/07/04 05:02:06;;;;;;;7.53;2.72;;;;;;;;;;6209377;28;20060;-80
2023/07/04 05:05:08;;;;;;;10.40;3.22;;;;;;;;;;6160279;28;20034;-79
2023/07/04 05:08:10;;;;;;;10.70;3.53;;;;;;;;;;6212360;28;20050;-81
2023/07/04 05:11:13;;;;;;;8.32;3.22;;;;;;;;;;6210936;28;20138;-80
2023/07/04 05:14:14;;;;;;;;;;;;;;;;;;6209448;28;20050;-80
2023/07/04 05:17:16;;;;;;;6.82;3.05;;;;;;;;;;6205738;28;19928;-80
2023/07/04 05:20:23;;;;;;;9.40;3.20;;;;;;;;;;6202750;28;20045;-78
2023/07/04 05:23:25;;;;;;;8.30;3.40;;;;;;;;;;6207654;28;20050;-79
2023/07/04 05:26:28;;;;;;;8.65;3.38;;;;;;;;;;6205402;28;20072;-79
2023/07/04 05:29:30;;;;;;;8.00;3.25;;;;;;;;;;6222050;28;20136;-79
2023/07/04 05:32:32;;;;;;;12.07;3.35;;;;;;;;;;6208622;28;20447;-81
2023/07/04 05:35:34;;;;;;;9.23;3.72;;;;;;;;;;6206009;28;20046;-79
2023/07/04 05:38:37;;;;;;;6.32;3.53;;;;;;;;;;6194427;28;20046;-81
2023/07/04 05:41:39;;;;;;;5.78;3.05;;;;;;;;;;6194735;28;20047;-80
2023/07/04 05:44:41;;;;;;;9.70;3.03;;;;;;;;;;6190597;28;20527;-79
2023/07/04 05:47:42;;;;;;;9.52;3.67;;;;;;;;;;6212068;28;20057;-80
2023/07/04 05:51:03;;;;;;;10.00;4.22;;;;;;;;;;6201048;28;20038;-78
2023/07/04 05:54:05;;;;;;;13.90;3.60;;;;;;;;;;6203324;28;20050;-80
2023/07/04 05:57:07;;;;;;;9.02;3.42;;;;;;;;;;6207669;28;20038;-80
2023/07/04 06:00:10;;;;;;;9.05;3.40;;;;;;;;;;6202693;28;20436;-81
2023/07/04 06:03:17;;;;;;;10.48;3.67;;;;;;;;;;6207432;28;20049;-77
2023/07/04 06:06:19;;;;;;;7.53;3.47;;;;;;;;;;6212643;28;20126;-77
2023/07/04 06:09:22;;;;;;;12.35;3.00;;;;;;;;;;6213214;28;20045;-78
2023/07/04 06:12:24;;;;;;;7.68;2.97;;;;;;;;;;6211805;28;20519;-77
2023/07/04 06:15:26;;;;;;;10.23;3.13;;;;;;;;;;6206678;28;20124;-77
2023/07/04 06:18:28;;;;;;;9.67;3.07;;;;;;;;;;6212318;28;20600;-78
2023/07/04 06:21:30;;;;;;;8.05;3.03;;;;;;;;;;6209421;28;20139;-78
2023/07/04 06:24:48;;;;;;;10.95;2.72;;;;;;;;;;6207486;28;20538;-77
2023/07/04 06:27:50;;;;;;;7.80;2.67;;;;;;;;;;6211534;28;20121;-77
2023/07/04 06:30:52;;;;;;;4.73;2.63;;;;;;;;;;6195306;28;20043;-78
2023/07/04 06:33:55;;;;;;;6.93;2.73;;;;;;;;;;6201383;28;20061;-79
2023/07/04 06:36:57;;;;;;;7.07;2.45;;;;;;;;;;6210535;28;20061;-81
2023/07/04 06:39:59;;;;;;;5.68;2.30;;;;;;;;;;6211101;28;20665;-80
2023/07/04 06:43:00;;;;;;;10.05;2.95;;;;;;;;;;6211738;28;20056;-79
2023/07/04 06:46:03;;;;;;;11.50;2.90;;;;;;;;;;6194392;28;20046;-80
2023/07/04 06:49:05;;;;;;;6.13;2.40;;;;;;;;;;6208085;28;20042;-79
2023/07/04 06:52:07;;;;;;;6.73;2.30;;;;;;;;;;6211018;28;20049;-79
2023/07/04 06:55:09;;;;;;;9.63;2.67;;;;;;;;;;6210529;28;20460;-79
2023/07/04 06:58:11;;;;;;;5.27;2.20;;;;;;;;;;6207820;28;20415;-80
2023/07/04 07:01:13;;;;;;;6.90;2.20;;;;;;;;;;6209857;28;20468;-80
2023/07/04 07:04:16;;;;;;;9.00;2.22;;;;;;;;;;6211031;28;20052;-79
2023/07/04 07:07:18;;;;;;;4.70;2.20;;;;;;;;;;6211176;28;20042;-82
2023/07/04 07:10:20;;;;;;;7.00;2.28;;;;;;;;;;6210586;28;20038;-80
2023/07/04 07:13:22;;;;;;;6.03;2.22;;;;;;;;;;6211945;28;20056;-81
2023/07/04 07:16:25;;;;;;;5.37;2.03;;;;;;;;;;6203837;28;20057;-81
2023/07/04 07:19:28;;;;;;;6.40;2.00;;;;;;;;;;6211195;28;20109;-81
2023/07/04 07:22:30;;;;;;;6.15;1.95;;;;;;;;;;6221433;28;20054;-80
2023/07/04 07:25:31;;;;;;;7.45;2.20;;;;;;;;;;6203321;28;20058;-81
2023/07/04 07:28:38;;;;;;;5.93;1.90;;;;;;;;;;6215021;28;20046;-82
2023/07/04 07:31:41;;;;;;;7.22;2.13;;;;;;;;;;6224764;28;20097;-81
2023/07/04 07:34:43;;;;;;;8.23;2.40;;;;;;;;;;6214077;28;20049;-80
2023/07/04 07:37:44;;;;;;;6.47;2.33;;;;;;;;;;6213293;28;20050;-81
2023/07/04 07:40:50;;;;;;;7.05;1.95;;;;;;;;;;6212659;28;20057;-81
2023/07/04 07:43:53;;;;;;;8.23;2.22;;;;;;;;;;6208735;28;20181;-80
2023/07/04 07:46:54;;;;;;;6.75;2.30;;;;;;;;;;6208981;28;20061;-80
2023/07/04 07:49:56;;;;;;;5.50;1.95;;;;;;;;;;6217029;28;20042;-82
2023/07/04 07:52:58;;;;;;;8.10;2.30;;;;;;;;;;6221305;28;20527;-80
2023/07/04 07:56:00;;;;;;;5.28;1.83;;;;;;;;;;6209974;28;20099;-80
2023/07/04 07:59:02;;;;;;;7.07;2.00;;;;;;;;;;6214646;28;20041;-80
2023/07/04 08:02:04;;;;;;;5.57;2.35;;;;;;;;;;6212956;28;20046;-79
2023/07/04 08:05:06;;;;;;;10.03;2.70;;;;;;;;;;6214108;28;20056;-80
2023/07/04 08:08:09;;;;;;;7.87;2.17;;;;;;;;;;6218270;28;20050;-79
2023/07/04 08:11:14;;;;;;;;;;;;;;;;;;6214626;28;20544;-80
2023/07/04 08:14:17;;;;;;;4.28;1.90;;;;;;;;;;6214446;28;20439;-79
2023/07/04 08:17:21;;;;;;;6.68;2.15;;;;;;;;;;6219886;28;20041;-80
2023/07/04 08:20:23;;;;;;;7.03;2.10;;;;;;;;;;6217643;28;20045;-79
2023/07/04 08:23:24;;;;;;;5.35;2.20;;;;;;;;;;6211614;28;20044;-79
2023/07/04 08:26:27;;;;;;;7.13;1.90;;;;;;;;;;6231635;28;20049;-80
2023/07/04 08:29:29;;;;;;;5.43;1.73;;;;;;;;;;6212946;28;20455;-81
2023/07/04 08:32:31;;;;;;;6.55;2.20;;;;;;;;;;6218201;28;20448;-80
2023/07/04 08:35:33;;;;;;;6.20;2.13;;;;;;;;;;6214625;28;20050;-80
2023/07/04 08:38:35;;;;;;;5.00;2.05;;;;;;;;;;6226773;28;20057;-78
2023/07/04 08:41:43;;;;;;;5.78;2.10;;;;;;;;;;6220212;28;20038;-78
2023/07/04 08:44:47;;;;;;;6.22;2.00;;;;;;;;;;6219721;28;20049;-78
2023/07/04 08:47:49;;;;;;;3.40;1.98;;;;;;;;;;6210931;28;20042;-79
2023/07/04 08:50:54;;;;;;;5.32;2.08;;;;;;;;;;6221999;28;20042;-80
2023/07/04 08:54:00;;;;;;;3.58;2.10;;;;;;;;;;6209396;28;20484;-78
2023/07/04 08:57:25;;;;;;;6.65;2.60;;;;;;;;;;6216003;28;20141;-80
2023/07/04 09:00:38;;;;;;;7.30;2.33;;;;;;;;;;6215291;28;20057;-79
2023/07/04 09:03:55;;;;;;;;;;;;;;;;;;6208029;28;20052;-80
2023/07/04 09:07:10;;;;;;;5.10;2.45;;;;;;;;;;6210588;28;19921;-80
2023/07/04 09:10:41;;;;;;;6.38;2.10;;;;;;;;;;6210508;28;20049;-80
2023/07/04 09:13:56;;;;;;;7.38;3.00;;;;;;;;;;6213326;28;20053;-82
2023/07/04 09:17:02;;;;;;;6.18;2.65;;;;;;;;;;6210620;28;20053;-80
2023/07/04 09:20:08;;;;;;;5.90;2.35;;;;;;;;;;6218035;28;20053;-80
2023/07/04 09:23:14;;;;;;;6.47;2.80;;;;;;;;;;6215462;28;20048;-81
2023/07/04 09:26:20;;;;;;;4.95;2.80;;;;;;;;;;6210553;28;20046;-77
2023/07/04 09:29:24;;;;;;;6.10;2.90;;;;;;;;;;6216825;28;20042;-81
2023/07/04 09:32:26;;;;;;;5.93;3.00;;;;;;;;;;6212450;28;20053;-81
2023/07/04 09:35:28;;;;;;;5.97;2.70;;;;;;;;;;6209228;28;20053;-80
2023/07/04 09:38:53;;;;;;;5.55;3.00;;;;;;;;;;6213174;28;20054;-80
2023/07/04 09:41:57;;;;;;;6.57;2.80;;;;;;;;;;6176087;28;20376;-79
2023/07/04 09:45:22;;;;;;;6.38;3.28;;;;;;;;;;6210269;28;20056;-78
2023/07/04 09:48:25;;;;;;;8.13;3.35;;;;;;;;;;6206369;28;20049;-79
2023/07/04 09:51:29;;;;;;;6.32;3.13;;;;;;;;;;6209676;28;20429;-80
2023/07/04 09:54:35;;;;;;;7.00;3.17;;;;;;;;;;6194034;28;20108;-81
2023/07/04 09:57:40;;;;;;;6.35;3.03;;;;;;;;;;6199598;28;20419;-81
2023/07/04 10:00:58;;;;;;;;;;;;;;;;;;6208956;28;20109;-81
2023/07/04 10:04:07;;;;;;;6.72;3.20;;;;;;;;;;6201654;28;19941;-81
2023/07/04 10:07:21;;;;;;;8.90;3.20;;;;;;;;;;6213399;28;20049;-80
2023/07/04 10:10:23;;;;;;;5.38;3.35;;;;;;;;;;6197553;28;20042;-81
2023/07/04 10:13:38;;;;;;;6.50;3.30;;;;;;;;;;6214074;28;20045;-80
2023/07/04 10:16:46;;;;;;;6.93;3.47;;;;;;;;;;6201670;28;20042;-81
2023/07/04 10:19:51;;;;;;;7.38;3.60;;;;;;;;;;6221256;28;20149;-80
2023/07/04 10:22:55;;;;;;;6.18;3.58;;;;;;;;;;6214460;28;20060;-80
2023/07/04 10:26:00;;;;;;;7.75;3.50;;;;;;;;;;6213716;28;20791;-82
2023/07/04 10:29:03;;;;;;;5.40;3.25;;;;;;;;;;6208188;28;20128;-80
2023/07/04 10:32:13;;;;;;;6.13;3.53;;;;;;;;;;6212407;28;20057;-82
2023/07/04 10:35:19;;;;;;;7.22;3.75;;;;;;;;;;6223438;28;20132;-81
2023/07/04 10:38:40;;;;;;;5.80;3.70;;;;;;;;;;6208284;28;20049;-80
2023/07/04 10:42:04;;;;;;;5.20;3.55;;;;;;;;;;6217279;28;20046;-82
2023/07/04 10:45:08;;;;;;;7.20;3.45;;;;;;;;;;6191855;28;20113;-81
2023/07/04 10:48:14;;;;;;;8.30;4.25;;;;;;;;;;6215987;28;20050;-80
2023/07/04 10:51:29;;;;;;;7.97;4.15;;;;;;;;;;6210728;28;20042;-80
2023/07/04 10:54:30;;;;;;;5.38;3.80;;;;;;;;;;6183487;28;20050;-80
2023/07/04 10:57:42;;;;;;;8.13;4.73;;;;;;;;;;6207210;28;20092;-82
2023/07/04 11:01:02;;;;;;;7.90;4.15;;;;;;;;;;6205793;28;20053;-80
2023/07/04 11:04:22;;;;;;;13.88;6.97;;;;;;;;;;6211779;28;20049;-82
2023/07/04 11:07:26;;;;;;;9.77;5.53;;;;;;;;;;6209669;28;20046;-81
2023/07/04 11:10:32;;;;;;;8.35;4.43;;;;;;;;;;6185733;28;20057;-83
2023/07/04 11:13:34;;;;;;;14.63;7.45;;;;;;;;;;6206029;28;20054;-82
2023/07/04 11:16:39;;;;;;;16.00;10.32;;;;;;;;;;6201687;28;20108;-81
2023/07/04 11:19:55;;;;;;;7.07;3.33;;;;;;;;;;6204130;28;20042;-80
2023/07/04 11:23:00;;;;;;;11.88;7.97;;;;;;;;;;6195593;28;20137;-80
2023/07/04 11:26:08;;;;;;;6.97;4.55;;;;;;;;;;6206130;28;20465;-84
2023/07/04 11:29:17;;;;;;;6.80;4.68;;;;;;;;;;6207156;28;20049;-81
2023/07/04 11:32:31;;;;;;;6.72;3.92;;;;;;;;;;6207273;28;20092;-81
2023/07/04 11:35:36;;;;;;;6.82;4.22;;;;;;;;;;6211168;28;20071;-82
2023/07/04 11:38:43;;;;;;;6.75;3.75;;;;;;;;;;6229995;28;20049;-83
2023/07/04 11:41:46;;;;;;;6.55;4.18;;;;;;;;;;6206651;28;20126;-84
2023/07/04 11:44:58;;;;;;;7.15;4.55;;;;;;;;;;6205946;28;20061;-82
2023/07/04 11:48:04;;;;;;;6.43;3.83;;;;;;;;;;6202327;28;20050;-83
2023/07/04 11:51:11;;;;;;;8.52;4.50;;;;;;;;;;6208853;28;20046;-83
2023/07/04 11:54:13;;;;;;;8.05;4.43;;;;;;;;;;6205350;28;20050;-82
2023/07/04 11:57:20;;;;;;;9.50;4.50;;;;;;;;;;6216217;28;20046;-81
2023/07/04 12:00:48;;;;;;;6.35;4.07;;;;;;;;;;6210484;28;20073;-81
2023/07/04 12:04:04;;;;;;;8.02;4.93;;;;;;;;;;6212619;28;20049;-85
2023/07/04 12:07:18;;;;;;;10.40;4.90;;;;;;;;;;6218330;28;20045;-82
2023/07/04 12:10:20;;;;;;;8.27;5.53;;;;;;;;;;6207257;28;20041;-82
2023/07/04 12:13:22;;;;;;;6.90;4.90;;;;;;;;;;6208229;28;20053;-83
2023/07/04 12:16:26;;;;;;;9.70;4.90;;;;;;;;;;6216271;28;20507;-83
2023/07/04 12:19:28;;;;;;;7.97;5.47;;;;;;;;;;6218190;28;20054;-84
2023/07/04 12:22:29;;;;;;;8.27;5.60;;;;;;;;;;6220054;28;20057;-83
2023/07/04 12:25:37;;;;;;;10.23;5.38;;;;;;;;;;6232432;28;20046;-83
2023/07/04 12:28:45;;;;;;;7.18;4.70;;;;;;;;;;6222346;28;20060;-84
2023/07/04 12:31:47;;;;;;;8.25;5.40;;;;;;;;;;6238872;28;20587;-85
2023/07/04 12:34:52;;;;;;;9.03;5.57;;;;;;;;;;6205452;28;20046;-83
2023/07/04 12:37:58;;;;;;;7.97;5.00;;;;;;;;;;6212507;28;20543;-83
2023/07/04 12:41:00;;;;;;;8.63;5.55;;;;;;;;;;6219072;28;20073;-83
2023/07/04 12:44:04;;;;;;;7.70;5.07;;;;;;;;;;6225007;28;20049;-83
2023/07/04 12:47:10;;;;;;;7.03;4.90;;;;;;;;;;6224175;28;20096;-84
2023/07/04 12:50:19;;;;;;;7.35;5.30;;;;;;;;;;6207131;28;20065;-84
2023/07/04 12:53:23;;;;;;;7.95;5.30;;;;;;;;;;6200312;28;20068;-84
2023/07/04 12:56:27;;;;;;;7.20;5.20;;;;;;;;;;6216434;28;20049;-83
2023/07/04 12:59:34;;;;;;;8.73;6.07;;;;;;;;;;6213341;28;20041;-83
2023/07/04 13:02:36;;;;;;;11.02;5.78;;;;;;;;;;6219326;28;20056;-84
2023/07/04 13:05:41;;;;;;;8.23;5.78;;;;;;;;;;6211230;28;20046;-84
2023/07/04 13:08:49;;;;;;;7.22;5.82;;;;;;;;;;6231007;28;20728;-84
2023/07/04 13:11:51;;;;;;;7.05;5.65;;;;;;;;;;6219009;28;20049;-84
2023/07/04 13:15:11;;;;;;;8.23;6.18;;;;;;;;;;6217817;28;20108;-84
2023/07/04 13:18:13;;;;;;;8.85;6.07;;;;;;;;;;6204049;28;20056;-85
2023/07/04 13:21:39;;;;;;;8.77;6.03;;;;;;;;;;6216497;28;20046;-84
2023/07/04 13:24:41;;;;;;;8.57;5.55;;;;;;;;;;6211382;28;20042;-83
2023/07/04 13:28:19;;;;;;;11.33;6.33;;;;;;;;;;6228253;28;20518;-82
2023/07/04 13:31:24;;;;;;;8.18;5.68;;;;;;;;;;6187453;28;20124;-83
2023/07/04 13:34:30;;;;;;;8.80;5.90;;;;;;;;;;6209911;28;20046;-83
2023/07/04 13:37:32;;;;;;;9.43;5.70;;;;;;;;;;6201326;28;20697;-82
2023/07/04 13:40:54;;;;;;;10.82;6.15;;;;;;;;;;6209153;28;20053;-83
2023/07/04 13:43:56;;;;;;;9.02;5.68;;;;;;;;;;6212330;28;20053;-83
2023/07/04 13:47:01;;;;;;;11.00;6.03;;;;;;;;;;6214257;28;20050;-83
2023/07/04 13:50:05;;;;;;;9.05;5.90;;;;;;;;;;6214058;28;20077;-83
2023/07/04 13:53:08;;;;;;;8.63;5.53;;;;;;;;;;6213437;28;20057;-86
2023/07/04 13:56:13;;;;;;;9.35;5.95;;;;;;;;;;6215046;28;20042;-81
2023/07/04 13:59:15;;;;;;;9.52;6.00;;;;;;;;;;6207252;28;20046;-83
2023/07/04 14:02:17;;;;;;;9.37;6.30;;;;;;;;;;6217194;28;20045;-81
2023/07/04 14:05:22;;;;;;;9.95;6.35;;;;;;;;;;6219648;28;20468;-83
2023/07/04 14:08:30;;;;;;;8.40;6.15;;;;;;;;;;6216631;28;20076;-82
2023/07/04 14:11:32;;;;;;;11.00;6.15;;;;;;;;;;6205417;28;20049;-83
2023/07/04 14:14:34;;;;;;;8.77;6.67;;;;;;;;;;6200817;28;20727;-81
2023/07/04 14:17:38;;;;;;;8.18;6.07;;;;;;;;;;6199154;28;20448;-82
2023/07/04 14:21:08;;;;;;;9.30;6.18;;;;;;;;;;6198539;28;20053;-81
2023/07/04 14:24:10;;;;;;;9.18;6.53;;;;;;;;;;6213832;28;20185;-83
2023/07/04 14:27:12;;;;;;;8.68;6.32;;;;;;;;;;6208997;28;20045;-81
2023/07/04 14:30:30;;;;;;;8.95;6.50;;;;;;;;;;6213535;28;20065;-81
2023/07/04 14:33:32;;;;;;;7.95;6.78;;;;;;;;;;6211020;28;20042;-81
2023/07/04 14:36:35;;;;;;;10.32;6.93;;;;;;;;;;6215814;28;20076;-81
2023/07/04 14:39:36;;;;;;;9.10;7.13;;;;;;;;;;6214751;28;20097;-81
2023/07/04 14:42:38;;;;;;;8.83;6.67;;;;;;;;;;6215396;28;20179;-82
2023/07/04 14:45:59;;;;;;;11.23;6.68;;;;;;;;;;6209799;28;20460;-81
2023/07/04 14:49:00;;;;;;;10.35;6.28;;;;;;;;;;6210320;28;20056;-80
2023/07/04 14:52:03;;;;;;;8.35;7.22;;;;;;;;;;6211482;28;20049;-80
2023/07/04 14:55:08;;;;;;;10.27;7.45;;;;;;;;;;6209979;28;20089;-81
2023/07/04 14:58:10;;;;;;;9.40;7.20;;;;;;;;;;6200802;28;20092;-81
2023/07/04 15:01:19;;;;;;;8.77;6.43;;;;;;;;;;6192465;28;20136;-80
2023/07/04 15:04:21;;;;;;;10.25;7.15;;;;;;;;;;6218162;28;20437;-82
2023/07/04 15:07:23;;;;;;;9.75;6.80;;;;;;;;;;6215750;28;20046;-83
2023/07/04 15:10:25;;;;;;;8.88;6.72;;;;;;;;;;6229303;28;20085;-85
2023/07/04 15:13:27;;;;;;;8.75;6.72;;;;;;;;;;6229941;28;20057;-85
2023/07/04 15:16:29;;;;;;;10.30;6.65;;;;;;;;;;6221257;28;20087;-83
2023/07/04 15:19:30;;;;;;;9.93;6.45;;;;;;;;;;6218211;28;20046;-80
2023/07/04 15:22:32;;;;;;;12.37;7.00;;;;;;;;;;6217303;28;20058;-80
2023/07/04 15:25:34;;;;;;;10.30;6.90;;;;;;;;;;6218752;28;20412;-79
2023/07/04 15:28:40;;;;;;;9.00;6.77;;;;;;;;;;6218326;28;20085;-79
2023/07/04 15:31:42;;;;;;;11.05;6.47;;;;;;;;;;6218713;28;20042;-80
2023/07/04 15:34:43;;;;;;;10.55;6.40;;;;;;;;;;6215515;28;20050;-79
2023/07/04 15:37:45;;;;;;;8.93;6.33;;;;;;;;;;6217245;28;20045;-81
2023/07/04 15:40:54;;;;;;;9.25;6.65;;;;;;;;;;6217825;28;20057;-81
2023/07/04 15:43:56;;;;;;;9.63;6.95;;;;;;;;;;6219295;28;20046;-81
2023/07/04 15:46:58;;;;;;;8.93;6.50;;;;;;;;;;6216686;28;20119;-81
2023/07/04 15:50:00;;;;;;;7.43;5.90;;;;;;;;;;6221613;28;20124;-80
2023/07/04 15:53:02;;;;;;;9.82;6.70;;;;;;;;;;6220352;28;20042;-80
2023/07/04 15:56:10;;;;;;;8.93;6.03;;;;;;;;;;6223634;28;20057;-81
2023/07/04 15:59:12;;;;;;;10.68;6.60;;;;;;;;;;6225882;28;20095;-80
2023/07/04 16:02:13;;;;;;;8.90;6.53;;;;;;;;;;6223787;28;20101;-80
2023/07/04 16:05:15;;;;;;;9.48;5.90;;;;;;;;;;6225107;28;20444;-80
2023/07/04 16:08:18;;;;;;;;;;;;;;;;;;6225800;28;20050;-80
2023/07/04 16:11:19;;;;;;;7.80;5.95;;;;;;;;;;6223450;28;19937;-81
2023/07/04 16:14:22;;;;;;;9.23;6.20;;;;;;;;;;6216169;28;20042;-80
2023/07/04 16:17:24;;;;;;;;;;;;;;;;;;6214603;28;20085;-80
2023/07/04 16:20:25;;;;;;;10.13;6.40;;;;;;;;;;6216897;28;19928;-81
2023/07/04 16:23:27;;;;;;;10.70;6.23;;;;;;;;;;6213199;28;20066;-80
2023/07/04 16:26:29;;;;;;;9.43;5.87;;;;;;;;;;6216486;28;20444;-81
2023/07/04 16:29:31;;;;;;;10.88;6.60;;;;;;;;;;6212548;28;20050;-81
2023/07/04 16:32:32;;;;;;;9.90;6.53;;;;;;;;;;6217779;28;20050;-81
2023/07/04 16:35:34;;;;;;;8.95;6.57;;;;;;;;;;6213978;28;20046;-80
2023/07/04 16:38:36;;;;;;;9.57;6.32;;;;;;;;;;6217123;28;20042;-82
2023/07/04 16:41:37;;;;;;;10.43;6.30;;;;;;;;;;6198595;28;20519;-82
2023/07/04 16:44:39;;;;;;;9.35;6.53;;;;;;;;;;6215162;28;20096;-83
2023/07/04 16:47:41;;;;;;;9.07;6.70;;;;;;;;;;6216851;28;20760;-81
2023/07/04 16:50:42;;;;;;;11.20;6.73;;;;;;;;;;6214682;28;20123;-82
2023/07/04 16:53:44;;;;;;;9.00;6.35;;;;;;;;;;6204383;28;20610;-82
2023/07/04 16:56:46;;;;;;;7.87;6.33;;;;;;;;;;6215911;28;20061;-83
2023/07/04 16:59:48;;;;;;;9.13;6.43;;;;;;;;;;6214231;28;20132;-83
2023/07/04 17:02:49;;;;;;;9.47;5.73;;;;;;;;;;6212540;28;20065;-81
2023/07/04 17:05:52;;;;;;;9.15;5.95;;;;;;;;;;6214127;28;20504;-82
2023/07/04 17:08:55;;;;;;;8.75;6.10;;;;;;;;;;6212201;28;20042;-84
2023/07/04 17:11:58;;;;;;;10.73;6.18;;;;;;;;;;6214866;28;20041;-83
2023/07/04 17:15:00;;;;;;;7.13;5.85;;;;;;;;;;6211682;28;20038;-83
2023/07/04 17:18:02;;;;;;;10.30;5.60;;;;;;;;;;6196825;28;20045;-82
2023/07/04 17:21:04;;;;;;;8.15;6.25;;;;;;;;;;6214022;28;20057;-81
2023/07/04 17:24:06;;;;;;;8.38;5.80;;;;;;;;;;6218925;28;20038;-81
2023/07/04 17:27:07;;;;;;;9.50;6.30;;;;;;;;;;6210054;28;20077;-82
2023/07/04 17:30:09;;;;;;;7.90;5.67;;;;;;;;;;6211502;28;20061;-84
2023/07/04 17:33:11;;;;;;;9.88;5.88;;;;;;;;;;6214539;28;20127;-79
2023/07/04 17:36:14;;;;;;;7.03;5.37;;;;;;;;;;6200977;28;20086;-80
2023/07/04 17:39:17;;;;;;;8.07;5.65;;;;;;;;;;6218131;28;20467;-80
2023/07/04 17:42:18;;;;;;;8.45;5.63;;;;;;;;;;6215123;28;20099;-81
2023/07/04 17:45:20;;;;;;;10.63;5.43;;;;;;;;;;6216400;28;20053;-86
2023/07/04 17:48:22;;;;;;;6.88;5.38;;;;;;;;;;6191632;28;20054;-80
2023/07/04 17:51:25;;;;;;;10.25;6.00;;;;;;;;;;6205702;28;21079;-80
2023/07/04 17:54:27;;;;;;;8.32;5.53;;;;;;;;;;6205975;28;20512;-80
2023/07/04 17:57:28;;;;;;;11.18;5.28;;;;;;;;;;6211642;28;20069;-81
2023/07/04 18:00:30;;;;;;;7.78;5.28;;;;;;;;;;6208748;28;20495;-81
2023/07/04 18:03:34;;;;;;;9.27;5.43;;;;;;;;;;6211060;28;20050;-81
2023/07/04 18:06:38;;;;;;;8.68;5.43;;;;;;;;;;6211171;28;20049;-82
2023/07/04 18:09:44;;;;;;;8.32;5.35;;;;;;;;;;6211757;28;20505;-81
2023/07/04 18:12:46;;;;;;;8.13;5.15;;;;;;;;;;6211756;28;20058;-81
2023/07/04 18:15:52;;;;;;;6.97;5.30;;;;;;;;;;6212859;28;20056;-81
2023/07/04 18:18:54;;;;;;;7.70;5.22;;;;;;;;;;6212664;28;20093;-81
2023/07/04 18:21:55;;;;;;;7.30;5.20;;;;;;;;;;6212467;28;20053;-80
2023/07/04 18:24:58;;;;;;;7.53;5.10;;;;;;;;;;6208659;28;20057;-82
2023/07/04 18:28:00;;;;;;;7.53;5.57;;;;;;;;;;6195267;28;20437;-82